NCAR-RAP Real-Time Weather Data

Output produced by METARs form (05 December 2019  15:10 UTC)
found at http://weather.rap.ucar.edu/surface/
 
RJTT 051500Z 04010KT 9999 FEW020 BKN/// 10/01 Q1021 NOSIG RMK 1CU020 A3016
 
RJAA 051500Z 01007KT 9999 FEW030 BKN/// 07/00 Q1021 NOSIG RMK 1CU030 A3015
 
 
RJAH 051500Z 36005KT 9999 FEW060 BKN/// 03/M01 Q1021
 
RJGG 051500Z 30021KT 9999 FEW030 BKN/// 09/02 Q1025 NOSIG
 
RJNK 051500Z VRB04KT 9999 -SHRA FEW005 SCT008 BKN015 04/03 Q1026
 
RJNT 051200Z 23004KT 9999 -SHRA FEW010 SCT020 BKN030 04/03 Q1026
 
RJNW 051000Z VRB01KT 9999 FEW000 SCT010 01/01 Q1024
 
 
 
 
 
 
 
 
 
 
 
RJTT 051500Z 04010KT 9999 FEW020 BKN/// 10/01 Q1021 NOSIG RMK 1CU020 A3016
 
 
RJTY 051456Z AUTO 26003KT 10SM OVC060 06/02 A3019 RMK AO2 SLP230 T00630020 401330007 55005 FZRANO $